Time;durP1;ratioP1;P1;durP2;ratioP2;P2;SDS_P1;SDS_P2;PMS_P1;PMS_P2;Temp;Humidity;BMP_temperature;BMP_pressure;BME280_temperature;BME280_humidity;BME280_pressure;Samples;Min_cycle;Max_cycle;Signal;HPM_P1;HPM_P2
2023/04/06 00:01:56;;;;;;;9.80;8.35;;;1.50;75.40;;;;;;5023529;28;20041;-90
2023/04/06 00:04:22;;;;;;;10.32;8.18;;;1.40;1.00;;;;;;5023595;28;20049;-89
2023/04/06 00:06:47;;;;;;;10.45;7.97;;;1.40;1.00;;;;;;5005844;28;20136;-89
2023/04/06 00:09:13;;;;;;;10.55;8.07;;;1.40;99.90;;;;;;5008284;28;20433;-91
2023/04/06 00:11:39;;;;;;;9.25;8.07;;;1.40;99.90;;;;;;5021104;28;20132;-89
2023/04/06 00:14:04;;;;;;;10.85;8.05;;;1.40;99.90;;;;;;5023927;28;20379;-90
2023/04/06 00:16:30;;;;;;;9.25;8.23;;;1.40;99.90;;;;;;5007872;28;20103;-90
2023/04/06 00:18:56;;;;;;;9.20;7.28;;;1.40;99.90;;;;;;5038935;28;20378;-90
2023/04/06 00:21:22;;;;;;;10.07;7.05;;;1.40;99.90;;;;;;5034817;28;20037;-90
2023/04/06 00:23:47;;;;;;;7.95;6.93;;;1.40;99.90;;;;;;5033343;28;20053;-91
2023/04/06 00:26:16;;;;;;;9.18;6.97;;;1.40;99.90;;;;;;5007618;28;20037;-90
2023/04/06 00:28:45;;;;;;;11.63;7.32;;;1.40;99.90;;;;;;5006242;28;20438;-90
2023/04/06 00:31:10;;;;;;;8.40;6.60;;;1.40;99.90;;;;;;5007622;28;20037;-90
2023/04/06 00:33:36;;;;;;;9.55;7.40;;;1.40;99.90;;;;;;5007245;28;20055;-91
2023/04/06 00:36:02;;;;;;;10.10;7.65;;;1.30;99.90;;;;;;5007705;28;20048;-90
2023/04/06 00:38:27;;;;;;;9.43;7.80;;;1.20;99.90;;;;;;5006489;28;20128;-90
2023/04/06 00:40:53;;;;;;;13.57;7.20;;;1.30;99.90;;;;;;5005686;28;20048;-91
2023/04/06 00:43:19;;;;;;;12.07;6.88;;;1.30;99.90;;;;;;5022271;28;20175;-90
2023/04/06 00:45:47;;;;;;;8.07;7.00;;;1.20;99.90;;;;;;5025127;28;20045;-90
2023/04/06 00:48:13;;;;;;;11.63;6.90;;;1.20;99.90;;;;;;5022183;28;20489;-89
2023/04/06 00:50:39;;;;;;;8.80;7.07;;;1.20;99.90;;;;;;5006614;28;20198;-91
2023/04/06 00:53:05;;;;;;;8.45;7.05;;;1.20;99.90;;;;;;5006943;28;20052;-91
2023/04/06 00:55:30;;;;;;;11.93;6.88;;;1.20;99.90;;;;;;5033064;28;20048;-90
2023/04/06 00:57:58;;;;;;;8.95;7.05;;;1.10;99.90;;;;;;5021481;28;20418;-90
2023/04/06 01:00:28;;;;;;;10.48;7.40;;;1.10;99.90;;;;;;5005338;28;20040;-90
2023/04/06 01:02:53;;;;;;;9.82;7.10;;;1.10;1.00;;;;;;5006283;28;20059;-91
2023/04/06 01:05:19;;;;;;;12.07;7.70;;;1.10;1.00;;;;;;5007236;28;20038;-90
2023/04/06 01:07:45;;;;;;;10.15;7.43;;;1.10;99.90;;;;;;5005809;28;20428;-90
2023/04/06 01:10:21;;;;;;;9.45;6.82;;;1.00;99.90;;;;;;5008249;28;20160;-89
2023/04/06 01:12:47;;;;;;;8.48;6.47;;;1.00;99.90;;;;;;5031398;28;20046;-91
2023/04/06 01:15:13;;;;;;;9.30;6.97;;;1.00;99.90;;;;;;5006627;28;20056;-89
2023/04/06 01:17:40;;;;;;;10.48;7.72;;;1.00;99.90;;;;;;5009856;28;20135;-90
2023/04/06 01:20:06;;;;;;;9.40;7.15;;;1.00;99.90;;;;;;5004975;28;20153;-91
2023/04/06 01:22:32;;;;;;;10.25;7.45;;;0.90;99.90;;;;;;5004996;28;20045;-91
2023/04/06 01:24:58;;;;;;;8.98;7.32;;;1.00;99.90;;;;;;5033284;28;20092;-90
2023/04/06 01:27:25;;;;;;;9.30;7.03;;;0.90;1.00;;;;;;5005264;28;20033;-90
2023/04/06 01:29:51;;;;;;;11.32;7.45;;;0.90;71.10;;;;;;5023234;28;20044;-91
2023/04/06 01:32:16;;;;;;;8.25;6.80;;;0.80;1.00;;;;;;5006127;28;20049;-90
2023/04/06 01:34:42;;;;;;;13.05;8.18;;;0.80;99.90;;;;;;5006148;28;20156;-89
2023/04/06 01:37:08;;;;;;;10.00;7.63;;;0.80;38.20;;;;;;5005332;28;20077;-91
2023/04/06 01:39:33;;;;;;;9.10;7.22;;;0.80;1.00;;;;;;5025695;28;20045;-90
2023/04/06 01:41:59;;;;;;;10.82;7.30;;;0.80;1.00;;;;;;5006614;28;20049;-89
2023/04/06 01:44:25;;;;;;;9.18;6.82;;;0.70;66.70;;;;;;5009831;28;20450;-89
2023/04/06 01:46:51;;;;;;;10.65;7.70;;;0.70;1.00;;;;;;5007776;28;20072;-90
2023/04/06 01:49:16;;;;;;;15.48;7.28;;;0.70;99.90;;;;;;5009185;28;20065;-90
2023/04/06 01:51:42;;;;;;;9.85;7.75;;;0.70;99.90;;;;;;5007987;28;20045;-91
2023/04/06 01:54:07;;;;;;;11.90;7.65;;;0.70;99.90;;;;;;5053745;28;20079;-89
2023/04/06 01:56:34;;;;;;;11.07;7.88;;;0.70;99.90;;;;;;5008930;28;20262;-91
2023/04/06 01:58:59;;;;;;;10.27;7.20;;;0.60;99.90;;;;;;5009026;28;20105;-90
2023/04/06 02:01:25;;;;;;;9.20;7.07;;;0.60;99.90;;;;;;5026087;28;20120;-89
2023/04/06 02:03:50;;;;;;;10.52;7.25;;;0.60;99.90;;;;;;5007627;28;20072;-89
2023/04/06 02:06:16;;;;;;;9.25;7.07;;;0.50;1.00;;;;;;5025104;28;20302;-89
2023/04/06 02:08:42;;;;;;;10.55;7.93;;;0.50;1.00;;;;;;5021813;28;20105;-90
2023/04/06 02:11:07;;;;;;;10.00;7.60;;;0.50;99.90;;;;;;5032368;28;20634;-90
2023/04/06 02:13:33;;;;;;;10.00;7.72;;;0.50;99.90;;;;;;5023965;28;20041;-90
2023/04/06 02:15:59;;;;;;;10.88;7.95;;;0.50;99.90;;;;;;5021306;28;20129;-91
2023/04/06 02:18:25;;;;;;;11.98;7.40;;;0.50;97.50;;;;;;5005577;28;20080;-89
2023/04/06 02:20:50;;;;;;;12.57;7.85;;;0.50;99.90;;;;;;5006495;28;20030;-90
2023/04/06 02:23:16;;;;;;;11.93;7.72;;;0.50;99.90;;;;;;5024624;28;20038;-90
2023/04/06 02:25:42;;;;;;;8.95;7.38;;;0.50;1.00;;;;;;5008439;28;20037;-91
2023/04/06 02:28:07;;;;;;;11.95;8.50;;;0.50;1.00;;;;;;5008742;28;20037;-90
2023/04/06 02:30:36;;;;;;;9.88;7.72;;;0.50;1.00;;;;;;5025219;28;20041;-89
2023/04/06 02:33:02;;;;;;;10.65;7.75;;;0.40;1.00;;;;;;5024586;28;20072;-89
2023/04/06 02:35:29;;;;;;;10.30;7.45;;;0.40;99.90;;;;;;5007458;28;20055;-90
2023/04/06 02:37:54;;;;;;;10.63;7.63;;;0.40;99.90;;;;;;5007139;28;20053;-90
2023/04/06 02:40:20;;;;;;;10.02;7.68;;;0.30;99.90;;;;;;5025472;28;20048;-89
2023/04/06 02:42:46;;;;;;;10.45;8.02;;;0.30;99.90;;;;;;5007711;28;20037;-90
2023/04/06 02:45:11;;;;;;;11.77;7.65;;;0.30;99.90;;;;;;5008525;28;20128;-89
2023/04/06 02:47:41;;;;;;;10.45;8.15;;;0.30;99.90;;;;;;5006580;28;20415;-91
2023/04/06 02:50:07;;;;;;;14.50;7.63;;;0.30;99.90;;;;;;5035901;28;20034;-90
2023/04/06 02:52:33;;;;;;;11.10;7.30;;;0.30;1.00;;;;;;5007996;28;20048;-91
2023/04/06 02:54:58;;;;;;;12.02;8.15;;;0.30;1.00;;;;;;5009288;28;20033;-91
2023/04/06 02:57:24;;;;;;;10.15;8.23;;;0.20;1.00;;;;;;5007262;28;20073;-90
2023/04/06 02:59:50;;;;;;;12.57;8.07;;;0.20;1.00;;;;;;5024938;28;20064;-90
2023/04/06 03:02:15;;;;;;;10.90;8.05;;;0.20;99.90;;;;;;5020422;28;20037;-90
2023/04/06 03:04:44;;;;;;;10.70;7.95;;;0.20;99.90;;;;;;5004193;28;20037;-90
2023/04/06 03:07:10;;;;;;;9.13;7.80;;;0.10;99.90;;;;;;5003993;28;20034;-91
2023/04/06 03:09:38;;;;;;;11.05;7.60;;;0.10;99.90;;;;;;5022632;28;20045;-91
2023/04/06 03:12:04;;;;;;;11.13;8.50;;;0.10;99.90;;;;;;5006996;28;20041;-91
2023/04/06 03:14:29;;;;;;;9.23;7.65;;;0.10;99.90;;;;;;5009587;28;20137;-92
2023/04/06 03:16:55;;;;;;;10.98;8.10;;;0.10;99.90;;;;;;5008379;28;20033;-90
2023/04/06 03:19:23;;;;;;;12.00;7.93;;;0.10;99.90;;;;;;5024117;28;20041;-91
2023/04/06 03:21:50;;;;;;;12.68;7.82;;;0.00;99.90;;;;;;5003678;28;20666;-90
2023/04/06 03:24:15;;;;;;;10.48;7.88;;;0.00;99.90;;;;;;5004149;28;20041;-90
2023/04/06 03:26:42;;;;;;;8.82;7.70;;;0.00;99.90;;;;;;5021894;28;20044;-92
2023/04/06 03:29:07;;;;;;;10.10;7.88;;;0.00;22.00;;;;;;5007057;28;20049;-91
2023/04/06 03:31:33;;;;;;;11.45;8.35;;;-0.10;61.80;;;;;;5008658;28;20029;-91
2023/04/06 03:33:59;;;;;;;10.93;8.13;;;-0.10;76.10;;;;;;5007126;28;20510;-91
2023/04/06 03:36:26;;;;;;;11.25;7.88;;;-0.10;75.00;;;;;;5007813;28;20544;-90
2023/04/06 03:38:53;;;;;;;13.15;7.88;;;-0.10;99.90;;;;;;5005469;28;20065;-91
2023/04/06 03:41:19;;;;;;;10.05;8.20;;;-0.10;97.10;;;;;;5023763;28;20107;-91
2023/04/06 03:43:45;;;;;;;12.18;8.07;;;-0.10;64.90;;;;;;5017047;28;20060;-90
2023/04/06 03:46:11;;;;;;;9.38;8.00;;;-0.20;63.80;;;;;;5008598;28;20037;-90
2023/04/06 03:48:36;;;;;;;12.93;8.40;;;-0.20;99.90;;;;;;5022978;28;20056;-91
2023/04/06 03:51:02;;;;;;;11.27;7.93;;;-0.20;99.90;;;;;;5008645;28;20106;-89
2023/04/06 03:53:28;;;;;;;12.77;8.40;;;-0.20;99.90;;;;;;5007033;28;20199;-91
2023/04/06 03:55:56;;;;;;;12.23;8.00;;;-0.20;99.90;;;;;;5007704;28;20048;-91
2023/04/06 03:58:22;;;;;;;13.48;8.48;;;-0.30;1.00;;;;;;5005654;28;20056;-91
2023/04/06 04:00:47;;;;;;;11.88;8.15;;;-0.30;10.60;;;;;;5021680;28;20612;-90
2023/04/06 04:03:13;;;;;;;11.88;7.80;;;-0.30;99.90;;;;;;5036398;28;20087;-90
2023/04/06 04:05:39;;;;;;;11.32;8.27;;;-0.30;99.90;;;;;;5006071;28;20034;-90
2023/04/06 04:08:06;;;;;;;10.10;8.15;;;-0.30;80.50;;;;;;5008152;28;20041;-91
2023/04/06 04:10:32;;;;;;;10.50;8.00;;;-0.40;1.00;;;;;;5021265;28;20077;-91
2023/04/06 04:13:00;;;;;;;15.70;8.35;;;-0.40;29.40;;;;;;5005424;28;20096;-91
2023/04/06 04:15:26;;;;;;;11.80;8.25;;;-0.40;99.90;;;;;;5011645;28;20426;-90
2023/04/06 04:17:51;;;;;;;11.63;8.45;;;-0.40;99.90;;;;;;5005791;28;20072;-91
2023/04/06 04:20:17;;;;;;;10.30;8.45;;;-0.40;99.90;;;;;;5008153;28;20041;-90
2023/04/06 04:22:43;;;;;;;10.95;8.10;;;-0.40;99.90;;;;;;5004743;28;20442;-91
2023/04/06 04:25:09;;;;;;;10.85;8.60;;;-0.40;99.90;;;;;;5004845;28;20048;-91
2023/04/06 04:27:35;;;;;;;12.10;8.98;;;-0.40;99.90;;;;;;5006060;28;20045;-91
2023/04/06 04:30:04;;;;;;;10.38;8.13;;;-0.50;99.90;;;;;;5007397;28;20183;-91
2023/04/06 04:32:30;;;;;;;14.10;9.32;;;-0.40;99.90;;;;;;5021476;28;20042;-91
2023/04/06 04:34:55;;;;;;;11.57;8.57;;;-0.40;99.90;;;;;;5007318;28;20186;-90
2023/04/06 04:37:21;;;;;;;12.63;8.30;;;-0.40;99.90;;;;;;5004905;28;20061;-89
2023/04/06 04:39:47;;;;;;;11.70;8.80;;;-0.50;99.90;;;;;;5036123;28;20045;-91
2023/04/06 04:42:13;;;;;;;12.95;9.05;;;-0.40;99.90;;;;;;5006044;28;20066;-90
2023/04/06 04:44:38;;;;;;;13.35;8.77;;;-0.50;99.90;;;;;;5033073;28;20053;-91
2023/04/06 04:47:07;;;;;;;11.02;8.85;;;-0.50;99.90;;;;;;5005631;28;20037;-90
2023/04/06 04:49:33;;;;;;;11.77;9.00;;;-0.50;99.90;;;;;;5005557;28;20228;-90
2023/04/06 04:51:59;;;;;;;12.90;8.30;;;-0.40;99.90;;;;;;5001982;28;20518;-92
2023/04/06 04:54:24;;;;;;;12.60;9.50;;;-0.50;99.90;;;;;;5019654;28;20037;-89
2023/04/06 04:56:51;;;;;;;16.98;9.50;;;-0.40;99.90;;;;;;5004695;28;20038;-90
2023/04/06 04:59:16;;;;;;;12.20;9.57;;;-0.50;99.90;;;;;;5002709;28;20511;-91
2023/04/06 05:01:42;;;;;;;12.90;9.18;;;-0.40;99.90;;;;;;5034240;28;20091;-89
2023/04/06 05:04:08;;;;;;;16.05;9.80;;;-0.50;99.90;;;;;;5008837;28;20064;-89
2023/04/06 05:06:34;;;;;;;13.10;9.65;;;-0.50;99.90;;;;;;5002163;28;20038;-92
2023/04/06 05:08:59;;;;;;;13.82;9.93;;;-0.40;99.90;;;;;;5004221;28;20511;-89
2023/04/06 05:11:26;;;;;;;14.55;10.07;;;-0.40;99.90;;;;;;5005210;28;20045;-91
2023/04/06 05:13:51;;;;;;;12.23;9.52;;;-0.40;99.90;;;;;;5006346;28;20120;-90
2023/04/06 05:16:17;;;;;;;14.05;9.68;;;-0.40;99.90;;;;;;5029021;28;20123;-91
2023/04/06 05:18:43;;;;;;;15.48;9.82;;;-0.30;99.90;;;;;;5011209;28;20037;-89
2023/04/06 05:21:11;;;;;;;13.55;9.98;;;-0.30;99.90;;;;;;5033049;28;20061;-90
2023/04/06 05:23:39;;;;;;;11.95;9.10;;;-0.20;99.90;;;;;;5009207;28;20070;-90
2023/04/06 05:26:05;;;;;;;13.10;9.15;;;-0.20;76.00;;;;;;5024233;28;20271;-91
2023/04/06 05:28:32;;;;;;;12.65;10.27;;;-0.20;91.10;;;;;;5027105;28;20034;-92
2023/04/06 05:30:57;;;;;;;15.25;10.05;;;-0.10;81.30;;;;;;5026525;28;20050;-91
2023/04/06 05:33:24;;;;;;;13.40;10.02;;;-0.10;15.80;;;;;;5010315;28;20051;-92
2023/04/06 05:35:50;;;;;;;14.38;9.80;;;0.00;1.00;;;;;;5010155;28;20468;-91
2023/04/06 05:38:16;;;;;;;14.32;10.07;;;0.00;1.00;;;;;;5005535;28;20214;-91
2023/04/06 05:40:42;;;;;;;14.32;9.23;;;0.10;99.90;;;;;;5006849;28;20064;-91
2023/04/06 05:43:08;;;;;;;14.25;9.63;;;0.20;1.00;;;;;;5010472;28;20037;-89
2023/04/06 05:45:36;;;;;;;14.02;9.80;;;0.30;1.00;;;;;;5009334;28;20463;-90
2023/04/06 05:48:02;;;;;;;15.88;10.70;;;0.30;1.00;;;;;;5008543;28;20121;-90
2023/04/06 05:50:28;;;;;;;12.77;9.48;;;0.40;1.00;;;;;;5007765;28;20649;-91
2023/04/06 05:52:54;;;;;;;15.68;10.43;;;0.50;1.00;;;;;;5023239;28;20037;-91
2023/04/06 05:55:20;;;;;;;15.82;10.35;;;0.60;1.00;;;;;;5008347;28;20030;-91
2023/04/06 05:57:48;;;;;;;13.40;10.73;;;0.70;1.00;;;;;;5009960;28;20494;-91
2023/04/06 06:00:14;;;;;;;16.10;10.35;;;0.70;1.00;;;;;;5007839;28;20167;-89
2023/04/06 06:02:42;;;;;;;13.65;9.75;;;0.80;99.90;;;;;;5024438;28;20120;-91
2023/04/06 06:05:08;;;;;;;12.07;9.48;;;0.90;99.90;;;;;;5008605;28;20547;-91
2023/04/06 06:07:34;;;;;;;14.50;10.60;;;1.00;99.90;;;;;;5009663;28;20037;-91
2023/04/06 06:09:59;;;;;;;12.52;9.75;;;1.10;99.90;;;;;;5025314;28;20037;-91
2023/04/06 06:12:28;;;;;;;14.30;10.30;;;1.20;99.90;;;;;;5023417;28;20037;-91
2023/04/06 06:14:55;;;;;;;13.10;9.82;;;1.40;99.90;;;;;;5008882;28;20121;-92
2023/04/06 06:17:20;;;;;;;15.35;10.48;;;1.40;99.90;;;;;;5007426;28;20041;-90
2023/04/06 06:19:46;;;;;;;15.30;10.65;;;1.60;99.90;;;;;;5007436;28;20052;-92
2023/04/06 06:22:12;;;;;;;15.77;9.77;;;1.70;99.90;;;;;;5009924;28;20383;-91
2023/04/06 06:24:37;;;;;;;15.52;10.43;;;1.70;1.00;;;;;;5022871;28;20432;-91
2023/04/06 06:27:03;;;;;;;14.15;10.27;;;1.90;1.00;;;;;;5000572;28;20038;-91
2023/04/06 06:29:31;;;;;;;15.60;10.88;;;2.00;1.00;;;;;;5009006;28;20120;-90
2023/04/06 06:31:57;;;;;;;15.95;10.43;;;2.10;99.90;;;;;;5007805;28;20593;-91
2023/04/06 06:34:23;;;;;;;14.80;10.05;;;2.20;99.90;;;;;;5007773;28;20056;-91
2023/04/06 06:36:48;;;;;;;15.95;10.15;;;2.30;99.90;;;;;;5008329;28;20060;-89
2023/04/06 06:39:14;;;;;;;15.43;10.80;;;2.40;43.90;;;;;;5007589;28;20041;-91
2023/04/06 06:41:43;;;;;;;14.07;10.73;;;2.50;81.20;;;;;;5006700;28;20145;-91
2023/04/06 06:44:11;;;;;;;15.10;10.13;;;2.60;99.90;;;;;;5008657;28;20045;-90
2023/04/06 06:46:37;;;;;;;13.35;9.73;;;2.70;99.90;;;;;;5022108;28;20515;-91
2023/04/06 06:49:03;;;;;;;14.68;10.18;;;2.90;1.00;;;;;;5008062;28;20037;-89
2023/04/06 06:51:28;;;;;;;14.52;10.02;;;3.00;82.70;;;;;;5008881;28;20049;-89
2023/04/06 06:53:54;;;;;;;14.55;10.85;;;3.10;99.90;;;;;;5023164;28;20073;-88
2023/04/06 06:56:20;;;;;;;16.38;10.50;;;3.20;99.90;;;;;;5005958;28;20558;-90
2023/04/06 06:58:46;;;;;;;14.07;10.93;;;3.40;99.90;;;;;;5005320;28;20107;-89
2023/04/06 07:01:11;;;;;;;17.20;10.73;;;3.50;99.90;;;;;;5008116;28;20117;-89
2023/04/06 07:03:40;;;;;;;14.45;10.50;;;3.60;1.00;;;;;;5023571;28;20040;-88
2023/04/06 07:06:06;;;;;;;14.60;10.57;;;3.70;99.90;;;;;;5007036;28;20037;-88
2023/04/06 07:08:32;;;;;;;13.68;10.60;;;3.80;41.30;;;;;;5006007;28;20041;-89
2023/04/06 07:10:57;;;;;;;13.95;10.57;;;3.90;1.00;;;;;;5006570;28;20057;-89
2023/04/06 07:13:23;;;;;;;13.70;10.02;;;4.10;99.90;;;;;;5006241;28;20091;-89
2023/04/06 07:15:50;;;;;;;17.02;9.73;;;4.20;99.90;;;;;;5007660;28;20348;-90
2023/04/06 07:18:20;;;;;;;12.77;9.75;;;4.30;1.00;;;;;;5006528;28;20049;-91
2023/04/06 07:20:46;;;;;;;14.18;9.93;;;4.40;1.00;;;;;;5009522;28;20041;-91
2023/04/06 07:23:12;;;;;;;12.60;9.30;;;4.50;1.00;;;;;;5030696;28;20517;-91
2023/04/06 07:25:37;;;;;;;15.20;9.70;;;4.60;99.90;;;;;;5022920;28;20415;-93
2023/04/06 07:28:03;;;;;;;11.98;9.93;;;4.70;99.90;;;;;;5023213;28;20251;-91
2023/04/06 07:30:30;;;;;;;13.25;9.98;;;4.80;99.90;;;;;;5006262;28;20051;-90
2023/04/06 07:32:56;;;;;;;14.65;10.07;;;5.00;99.90;;;;;;5009330;28;20070;-91
2023/04/06 07:35:26;;;;;;;12.60;9.73;;;5.10;96.80;;;;;;5024214;28;20057;-89
2023/04/06 07:37:52;;;;;;;12.07;9.02;;;5.30;52.40;;;;;;5004981;28;20107;-90
2023/04/06 07:40:19;;;;;;;14.40;10.27;;;5.40;1.00;;;;;;5007733;28;20041;-90
2023/04/06 07:42:45;;;;;;;12.55;9.88;;;5.50;99.90;;;;;;5030178;28;20038;-91
2023/04/06 07:45:11;;;;;;;13.25;9.93;;;5.70;99.90;;;;;;5005798;28;20080;-90
2023/04/06 07:47:40;;;;;;;12.93;10.02;;;5.80;99.90;;;;;;5022389;28;20041;-90
2023/04/06 07:50:06;;;;;;;14.13;9.82;;;5.90;99.90;;;;;;5008321;28;20111;-90
2023/04/06 07:52:32;;;;;;;11.57;9.13;;;6.00;99.90;;;;;;5008556;28;20052;-91
2023/04/06 07:54:58;;;;;;;11.43;8.77;;;6.20;99.90;;;;;;5005760;28;20191;-90
2023/04/06 07:57:24;;;;;;;13.80;9.68;;;6.30;99.90;;;;;;5033911;28;20041;-91
2023/04/06 07:59:50;;;;;;;12.43;9.40;;;6.40;61.30;;;;;;5008802;28;20120;-90
2023/04/06 08:02:16;;;;;;;12.52;9.10;;;6.50;1.00;;;;;;5006818;28;20561;-91
2023/04/06 08:04:43;;;;;;;13.32;9.02;;;6.60;1.00;;;;;;5009886;28;20041;-90
2023/04/06 08:07:08;;;;;;;12.25;9.05;;;6.80;1.00;;;;;;5023421;28;20041;-92
2023/04/06 08:09:34;;;;;;;12.98;9.55;;;6.90;1.00;;;;;;5007544;28;20144;-92
2023/04/06 08:12:00;;;;;;;12.05;9.13;;;7.00;99.90;;;;;;5008858;28;20077;-91
2023/04/06 08:14:25;;;;;;;12.18;9.00;;;7.20;99.90;;;;;;5024886;28;20044;-91
2023/04/06 08:16:51;;;;;;;14.15;9.70;;;7.30;99.90;;;;;;5023141;28;20056;-92
2023/04/06 08:19:18;;;;;;;13.00;9.40;;;7.50;99.90;;;;;;5025176;28;20045;-92
2023/04/06 08:21:45;;;;;;;13.10;9.50;;;7.70;99.90;;;;;;5006176;28;20041;-91
2023/04/06 08:24:12;;;;;;;12.60;8.20;;;7.90;99.90;;;;;;5006111;28;20048;-91
2023/04/06 08:26:37;;;;;;;11.30;8.25;;;7.90;99.90;;;;;;5006616;28;20038;-92
2023/04/06 08:29:04;;;;;;;11.93;8.85;;;8.10;99.90;;;;;;5007930;28;20091;-92
2023/04/06 08:31:30;;;;;;;13.38;9.18;;;8.30;99.90;;;;;;5006120;28;20072;-92
2023/04/06 08:33:56;;;;;;;18.33;9.35;;;8.50;99.90;;;;;;5006465;28;20544;-91
2023/04/06 08:36:22;;;;;;;12.73;9.00;;;8.70;99.90;;;;;;5023195;28;20045;-92
2023/04/06 08:38:49;;;;;;;12.60;8.85;;;8.80;99.90;;;;;;5005929;28;20050;-92
2023/04/06 08:41:17;;;;;;;11.20;9.20;;;8.90;99.90;;;;;;5005154;28;20099;-92
2023/04/06 08:43:51;;;;;;;11.40;8.48;;;9.10;99.90;;;;;;5007397;28;20047;-92
2023/04/06 08:46:18;;;;;;;13.02;9.10;;;9.40;99.90;;;;;;5008029;28;20042;-91
2023/04/06 08:48:45;;;;;;;15.60;9.15;;;9.50;99.90;;;;;;5006557;28;20041;-91
2023/04/06 08:51:11;;;;;;;11.32;9.13;;;9.60;99.90;;;;;;5007188;28;20295;-93
2023/04/06 08:53:38;;;;;;;11.73;9.35;;;9.70;99.90;;;;;;5003350;28;20038;-90
2023/04/06 08:56:05;;;;;;;11.70;8.40;;;10.00;99.90;;;;;;5007640;28;20063;-91
2023/04/06 08:58:40;;;;;;;13.55;8.75;;;10.10;99.90;;;;;;5006728;28;20474;-91
2023/04/06 09:01:08;;;;;;;11.32;8.68;;;10.40;99.90;;;;;;5006040;28;20045;-91
2023/04/06 09:03:38;;;;;;;9.45;8.40;;;10.50;99.90;;;;;;5019332;28;20141;-91
2023/04/06 09:06:04;;;;;;;13.20;9.45;;;10.70;99.90;;;;;;5019770;28;20037;-91
2023/04/06 09:08:34;;;;;;;11.70;8.90;;;10.80;99.90;;;;;;5022468;28;20110;-91
2023/04/06 09:11:02;;;;;;;11.98;8.80;;;11.20;99.90;;;;;;5003878;28;20040;-91
2023/04/06 09:13:28;;;;;;;12.50;9.38;;;11.40;99.90;;;;;;5004123;28;20045;-91
2023/04/06 09:16:05;;;;;;;14.98;9.43;;;11.50;99.90;;;;;;5008690;28;20037;-91
2023/04/06 09:18:32;;;;;;;12.18;9.15;;;11.80;99.90;;;;;;5023325;28;20068;-91
2023/04/06 09:20:59;;;;;;;16.05;10.35;;;12.00;99.90;;;;;;5020358;28;20048;-91
2023/04/06 09:23:24;;;;;;;11.88;9.43;;;12.00;99.90;;;;;;5003943;28;20033;-91
2023/04/06 09:25:50;;;;;;;11.60;9.30;;;12.20;99.90;;;;;;5021334;28;20045;-92
2023/04/06 09:28:16;;;;;;;12.60;10.23;;;12.20;99.90;;;;;;5034846;28;20044;-91
2023/04/06 09:30:51;;;;;;;14.43;9.25;;;12.20;99.90;;;;;;5022437;28;20490;-92
2023/04/06 09:33:23;;;;;;;14.10;9.10;;;12.50;99.90;;;;;;5005955;28;20110;-93
2023/04/06 09:35:52;;;;;;;12.65;10.18;;;12.40;99.90;;;;;;5006341;28;20041;-91
2023/04/06 09:38:18;;;;;;;15.43;10.68;;;12.20;99.90;;;;;;5006605;28;20065;-90
2023/04/06 09:40:52;;;;;;;16.83;11.52;;;12.20;99.90;;;;;;5023380;28;20042;-92
2023/04/06 09:43:27;;;;;;;14.27;11.15;;;12.30;96.20;;;;;;5006341;28;20041;-91
2023/04/06 09:45:54;;;;;;;17.20;11.70;;;12.30;91.90;;;;;;5004196;28;20037;-91
2023/04/06 09:48:21;;;;;;;16.25;10.93;;;12.30;86.10;;;;;;5032574;28;20683;-91
2023/04/06 09:50:50;;;;;;;15.55;11.38;;;12.30;83.80;;;;;;5006390;28;20036;-90
2023/04/06 09:53:20;;;;;;;16.60;11.40;;;12.70;96.20;;;;;;5005345;28;20284;-92
2023/04/06 09:55:47;;;;;;;18.33;11.73;;;12.30;53.00;;;;;;5006786;28;20080;-91
2023/04/06 09:58:18;;;;;;;14.43;11.40;;;12.40;46.90;;;;;;5003498;28;20096;-91
2023/04/06 10:01:05;;;;;;;17.02;11.23;;;12.30;50.00;;;;;;5033623;28;20041;-91
2023/04/06 10:03:43;;;;;;;16.00;11.15;;;12.50;45.10;;;;;;5008148;28;20454;-91
2023/04/06 10:06:14;;;;;;;18.58;12.70;;;12.40;32.60;;;;;;5010349;28;20087;-91
2023/04/06 10:08:42;;;;;;;17.13;12.60;;;12.50;31.50;;;;;;5009901;28;20052;-91
2023/04/06 10:11:09;;;;;;;17.10;12.48;;;12.50;36.80;;;;;;5008699;28;20073;-93
2023/04/06 10:13:35;;;;;;;16.20;12.30;;;12.70;25.50;;;;;;5009505;28;20045;-91
2023/04/06 10:16:01;;;;;;;15.25;11.40;;;12.80;42.70;;;;;;5010249;28;20048;-91
2023/04/06 10:18:27;;;;;;;19.60;12.13;;;12.90;34.40;;;;;;5007797;28;20164;-91
2023/04/06 10:21:08;;;;;;;20.10;13.02;;;13.00;38.80;;;;;;5026649;28;20599;-91
2023/04/06 10:23:35;;;;;;;19.70;13.07;;;13.10;30.30;;;;;;5025520;28;20040;-91
2023/04/06 10:26:02;;;;;;;18.45;13.43;;;13.00;13.00;;;;;;5007061;28;20108;-92
2023/04/06 10:28:35;;;;;;;19.08;13.68;;;13.20;11.30;;;;;;5009147;28;20041;-91
2023/04/06 10:31:08;;;;;;;19.77;13.60;;;13.30;9.70;;;;;;5008100;28;20033;-91
2023/04/06 10:33:34;;;;;;;19.23;13.70;;;13.40;12.40;;;;;;5008425;28;20130;-91
2023/04/06 10:36:14;;;;;;;22.90;13.82;;;13.40;9.10;;;;;;5009472;28;20136;-91
2023/04/06 10:38:41;;;;;;;21.58;15.23;;;12.90;1.00;;;;;;5039961;28;20057;-90
2023/04/06 10:41:11;;;;;;;21.35;15.00;;;13.00;1.00;;;;;;5007815;28;20038;-90
2023/04/06 10:43:38;;;;;;;24.73;16.20;;;13.30;1.00;;;;;;5008311;28;20069;-91
2023/04/06 10:46:06;;;;;;;20.83;15.13;;;13.50;1.00;;;;;;5007535;28;20119;-91
2023/04/06 10:48:46;;;;;;;23.42;16.38;;;13.50;1.00;;;;;;5032560;28;20033;-92
2023/04/06 10:51:17;;;;;;;23.35;15.88;;;13.50;1.00;;;;;;5034301;28;20044;-91
2023/04/06 10:53:48;;;;;;;22.30;16.10;;;13.80;1.00;;;;;;5008915;28;20033;-91
2023/04/06 10:56:20;;;;;;;24.05;17.20;;;14.00;3.20;;;;;;5039196;28;20045;-91
2023/04/06 10:58:52;;;;;;;26.00;18.13;;;14.20;1.00;;;;;;5007617;28;20041;-92
2023/04/06 11:01:20;;;;;;;23.17;16.48;;;14.20;1.00;;;;;;5008293;28;20543;-91
2023/04/06 11:03:54;;;;;;;25.02;18.30;;;14.40;1.00;;;;;;5009410;28;20047;-90
2023/04/06 11:06:25;;;;;;;27.13;19.43;;;13.90;1.00;;;;;;5003748;28;20040;-91
2023/04/06 11:08:54;;;;;;;24.63;18.95;;;14.00;1.00;;;;;;5009490;28;20041;-91
2023/04/06 11:11:26;;;;;;;23.23;18.13;;;14.00;1.00;;;;;;5021354;28;20033;-93
2023/04/06 11:13:59;;;;;;;27.63;18.83;;;14.20;1.00;;;;;;5008923;28;20072;-90
2023/04/06 11:16:28;;;;;;;27.98;19.65;;;14.30;1.00;;;;;;5005710;28;20037;-91
2023/04/06 11:18:55;;;;;;;28.98;19.58;;;13.70;1.00;;;;;;5006289;28;20037;-91
2023/04/06 11:21:33;;;;;;;28.27;20.42;;;13.60;1.00;;;;;;5007283;28;20037;-91
2023/04/06 11:24:11;;;;;;;28.70;20.27;;;14.00;1.00;;;;;;5039201;28;20099;-91
2023/04/06 11:26:58;;;;;;;29.85;19.48;;;14.30;1.00;;;;;;5006346;28;20041;-91
2023/04/06 11:29:29;;;;;;;28.45;20.70;;;14.40;1.00;;;;;;5003860;28;20033;-86
2023/04/06 11:32:03;;;;;;;26.60;19.27;;;14.30;1.00;;;;;;5003257;28;20048;-85
2023/04/06 11:34:32;;;;;;;24.90;18.92;;;14.30;1.00;;;;;;5020281;28;20041;-87
2023/04/06 11:37:05;;;;;;;28.48;19.48;;;14.40;1.00;;;;;;5020710;28;20137;-86
2023/04/06 11:39:32;;;;;;;26.50;20.45;;;14.60;1.00;;;;;;5004365;28;20123;-87
2023/04/06 11:42:04;;;;;;;25.77;20.08;;;14.50;1.00;;;;;;5019843;28;20037;-86
2023/04/06 11:44:45;;;;;;;27.70;20.08;;;14.60;1.00;;;;;;5021753;28;20068;-86
2023/04/06 11:47:11;;;;;;;28.75;19.23;;;14.80;1.00;;;;;;5036966;28;21028;-86
2023/04/06 11:49:39;;;;;;;25.60;19.60;;;15.10;1.00;;;;;;5021767;28;20370;-86
2023/04/06 11:52:18;;;;;;;27.00;20.17;;;14.60;1.00;;;;;;5021219;28;20049;-87
2023/04/06 11:54:44;;;;;;;25.35;19.42;;;14.70;1.00;;;;;;5021138;28;20399;-86
2023/04/06 11:57:10;;;;;;;29.40;21.60;;;14.90;1.00;;;;;;5018339;28;20037;-86
2023/04/06 11:59:35;;;;;;;30.63;20.75;;;14.50;1.00;;;;;;5005808;28;20049;-86
2023/04/06 12:02:05;;;;;;;25.98;19.25;;;14.50;1.00;;;;;;5018468;28;20362;-86
2023/04/06 12:04:31;;;;;;;23.52;18.55;;;14.40;1.00;;;;;;5020679;28;20042;-86
2023/04/06 12:06:57;;;;;;;26.88;19.45;;;14.20;1.00;;;;;;5020401;28;20430;-86
2023/04/06 12:09:23;;;;;;;27.92;20.20;;;14.30;1.00;;;;;;5004657;28;20076;-86
2023/04/06 12:11:48;;;;;;;27.27;20.65;;;14.50;1.00;;;;;;5003092;28;20049;-87
2023/04/06 12:14:14;;;;;;;28.42;20.80;;;14.70;1.00;;;;;;5016946;28;20042;-87
2023/04/06 12:16:40;;;;;;;26.83;19.75;;;15.00;1.00;;;;;;5019261;28;20407;-85
2023/04/06 12:19:06;;;;;;;27.23;19.77;;;15.10;1.00;;;;;;5019861;28;20498;-86
2023/04/06 12:21:33;;;;;;;26.63;20.30;;;14.70;1.00;;;;;;5019710;28;20048;-87
2023/04/06 12:24:00;;;;;;;27.27;19.25;;;14.80;1.00;;;;;;5020706;28;20092;-87
2023/04/06 12:26:26;;;;;;;26.38;19.77;;;14.60;1.00;;;;;;5018746;28;20379;-87
2023/04/06 12:28:52;;;;;;;27.85;19.65;;;14.60;1.00;;;;;;5002433;28;20041;-86
2023/04/06 12:31:19;;;;;;;25.73;18.80;;;14.40;1.00;;;;;;5004603;28;20119;-86
2023/04/06 12:33:49;;;;;;;27.13;19.50;;;14.50;1.00;;;;;;5005442;28;20207;-87
2023/04/06 12:36:18;;;;;;;26.25;18.73;;;14.50;1.00;;;;;;5020615;28;20104;-86
2023/04/06 12:38:46;;;;;;;24.00;18.77;;;14.20;1.00;;;;;;5004671;28;20096;-85
2023/04/06 12:41:13;;;;;;;26.50;18.48;;;13.90;1.00;;;;;;5016851;28;20462;-86
2023/04/06 12:43:42;;;;;;;26.80;19.70;;;14.40;1.00;;;;;;5001579;28;20152;-86